Aeroporto :
LOGIN :

Iscrizione | Disclaimer

   EN    FR    IT 

 










Sommario :    VFR   VFR Marginale   IFR   IFR Intensivo   IFR Molto Intensivo
Visibilità : 
Base nubi : 
>= 8 km
>= 3000ft
5 / 8 km
1000 / 3000 ft
1500m / 5 km
500 / 1000 ft
800 / 1500m
200 / 500 ft
< 800m
< 200 ft
Simboli :   Temporali  Nebbia  Neve Forte  Precipitazioni Forti  Vento > 20 kt
SIGMETs :   Varie  Temporali  Ghiacco  Turbolenza  Onda orograficha  Ceneri Vulcaniche






- Altitudine del aeroporto : 461 ft
- Codice IATA : WIE


ETOU - Wiesbaden Army

ULTIMO METAR :
  • 022356Z AUTO 30005KT 9999 CLR 03/M02 A2990 RMK AO2 SLP132 T00301016 10108 20029 50007 $

METARs OBSOLETI :
  • 022256Z AUTO 27004KT 9999 CLR 05/M01 A2991 RMK AO2 SLP134 T00501015 401451012 $
  • 022156Z AUTO 31005KT 9999 CLR 06/M01 A2990 RMK AO2 SLP131 T00611015 $

TAF TAF ETOU
Valido dal 02 a 20 ore il 04 a 02 ore UTC


022000Z 0220/0402 32010KT 9999 SCT030 QNH2990INS
BECMG 0302/0303 25006KT 9999 BKN020 QNH2991INS
BECMG 0312/0313 28010G15KT 9999 SCT025 QNH3002INS
BECMG 0318/0319 VRB05KT 9999 SCT035 QNH3009INS TX10/0315Z TN03/0302Z



MetMap, La meteo Aeronautica in un colpo d'occhio ! - Copyright ORBIFLY Dicembre 2007 - Disclaimer

ORBIFLY MET'MAP TEAM :

Programmazione e sviluppo : Alexandra Zaïnal
Concezione : Baudouin d'Aumeries
Aiuto per la programmazione : Marc-Olivier Méhu
Supporto tecnico e logistico : Manuel Goepfert
Aiuto per la traduzione : Arnaldo La Scala

Contatto : metmap@orbifly.com




FONTI E CREDITI :

   NOAA